Time;durP1;ratioP1;P1;durP2;ratioP2;P2;SDS_P1;SDS_P2;PMS_P1;PMS_P2;Temp;Humidity;BMP_temperature;BMP_pressure;BME280_temperature;BME280_humidity;BME280_pressure;Samples;Min_cycle;Max_cycle;Signal;HPM_P1;HPM_P2
2021/04/06 00:00:21;;;;;;;19.63;5.82;;;2.10;99.90;;;;;;5049460;28;20025;-53
2021/04/06 00:02:49;;;;;;;17.48;5.82;;;2.10;99.90;;;;;;5053237;28;20029;-54
2021/04/06 00:05:17;;;;;;;19.80;5.75;;;2.10;99.90;;;;;;5053468;28;20391;-53
2021/04/06 00:07:43;;;;;;;18.65;6.13;;;2.10;99.90;;;;;;5049712;28;20033;-55
2021/04/06 00:10:17;;;;;;;25.27;5.82;;;2.10;99.90;;;;;;5052214;28;20033;-50
2021/04/06 00:12:45;;;;;;;19.05;5.35;;;2.20;99.90;;;;;;5059149;28;20020;-52
2021/04/06 00:15:12;;;;;;;24.73;5.47;;;2.20;99.90;;;;;;5054404;28;20021;-50
2021/04/06 00:17:43;;;;;;;21.58;5.40;;;2.20;99.90;;;;;;5053838;28;20040;-50
2021/04/06 00:20:10;;;;;;;16.10;5.05;;;2.30;99.90;;;;;;5053051;28;20029;-50
2021/04/06 00:22:37;;;;;;;29.10;5.45;;;2.30;99.90;;;;;;5053479;28;20037;-52
2021/04/06 00:25:07;;;;;;;36.53;6.85;;;2.30;99.90;;;;;;5052381;28;20142;-54
2021/04/06 00:27:41;;;;;;;23.67;5.13;;;2.30;99.90;;;;;;5056600;28;20047;-51
2021/04/06 00:30:16;;;;;;;;;;;2.30;99.90;;;;;;5053631;28;20442;-51
2021/04/06 00:32:43;;;;;;;20.27;5.00;;;2.30;99.90;;;;;;5053517;28;19915;-50
2021/04/06 00:35:10;;;;;;;17.02;4.03;;;2.40;99.90;;;;;;5052341;28;20429;-50
2021/04/06 00:37:45;;;;;;;18.55;4.68;;;2.40;99.90;;;;;;5052230;28;20017;-52
2021/04/06 00:40:12;;;;;;;22.65;4.95;;;2.40;99.90;;;;;;5056768;28;20033;-50
2021/04/06 00:42:40;;;;;;;10.60;4.30;;;2.40;99.90;;;;;;5053204;28;20025;-50
2021/04/06 00:45:09;;;;;;;18.70;4.93;;;2.50;99.90;;;;;;5053544;28;20108;-52
2021/04/06 00:47:35;;;;;;;17.25;4.60;;;2.50;99.90;;;;;;5053153;28;20029;-51
2021/04/06 00:50:10;;;;;;;17.33;4.90;;;2.50;99.90;;;;;;5053087;28;20508;-53
2021/04/06 00:52:42;;;;;;;20.23;5.28;;;2.50;99.90;;;;;;5054019;28;20033;-51
2021/04/06 00:55:13;;;;;;;20.00;4.32;;;2.60;99.90;;;;;;5051323;28;20029;-50
2021/04/06 00:57:42;;;;;;;19.67;4.72;;;2.60;99.90;;;;;;5051475;28;20028;-51
2021/04/06 01:00:08;;;;;;;17.08;4.45;;;2.60;99.90;;;;;;5052251;28;20087;-54
2021/04/06 01:02:34;;;;;;;14.32;4.35;;;2.70;99.90;;;;;;5053332;28;20033;-54
2021/04/06 01:05:07;;;;;;;13.73;3.75;;;2.70;99.90;;;;;;5051800;28;20106;-54
2021/04/06 01:07:36;;;;;;;18.05;3.88;;;2.70;99.90;;;;;;5052173;28;20024;-53
2021/04/06 01:10:06;;;;;;;20.40;3.28;;;2.80;99.90;;;;;;5062396;28;20025;-50
2021/04/06 01:12:32;;;;;;;31.88;4.85;;;2.80;99.90;;;;;;5051031;28;20100;-53
2021/04/06 01:14:58;;;;;;;17.65;3.38;;;2.90;99.90;;;;;;5052646;28;20132;-51
2021/04/06 01:17:26;;;;;;;17.05;3.92;;;2.90;99.90;;;;;;5052939;28;20044;-52
2021/04/06 01:19:52;;;;;;;20.00;3.53;;;2.90;99.90;;;;;;5052672;28;20032;-52
2021/04/06 01:22:19;;;;;;;16.17;3.15;;;2.90;99.90;;;;;;5047100;28;20033;-53
2021/04/06 01:24:46;;;;;;;23.42;3.55;;;3.00;99.90;;;;;;5042419;28;20743;-52
2021/04/06 01:27:14;;;;;;;15.73;3.33;;;3.00;99.90;;;;;;5050789;28;20029;-52
2021/04/06 01:29:56;;;;;;;15.45;3.75;;;3.00;99.90;;;;;;5052398;28;20029;-54
2021/04/06 01:32:25;;;;;;;22.45;3.33;;;3.00;99.90;;;;;;5052700;28;20078;-54
2021/04/06 01:34:52;;;;;;;28.73;4.88;;;3.00;99.90;;;;;;5045473;28;20021;-53
2021/04/06 01:37:22;;;;;;;20.13;3.58;;;3.00;99.90;;;;;;5044249;28;20032;-54
2021/04/06 01:39:51;;;;;;;18.67;3.47;;;3.00;99.90;;;;;;5031171;28;20039;-54
2021/04/06 01:42:17;;;;;;;14.77;2.85;;;2.90;99.90;;;;;;5051342;28;20601;-54
2021/04/06 01:44:47;;;;;;;11.50;3.33;;;2.90;99.90;;;;;;5052426;28;20074;-54
2021/04/06 01:47:14;;;;;;;32.90;4.50;;;2.90;99.90;;;;;;5052343;28;20064;-53
2021/04/06 01:49:41;;;;;;;18.23;3.65;;;3.00;99.90;;;;;;5051997;28;20628;-52
2021/04/06 01:52:07;;;;;;;18.23;3.70;;;3.00;99.90;;;;;;5052723;28;20039;-52
2021/04/06 01:54:35;;;;;;;26.80;3.75;;;3.00;99.90;;;;;;5042843;28;20025;-52
2021/04/06 01:57:12;;;;;;;27.63;4.40;;;3.00;99.90;;;;;;5049766;28;20033;-51
2021/04/06 01:59:43;;;;;;;22.85;4.97;;;3.00;99.90;;;;;;5051768;28;20174;-51
2021/04/06 02:02:10;;;;;;;22.88;3.90;;;3.00;99.90;;;;;;5051932;28;20395;-50
2021/04/06 02:04:37;;;;;;;28.52;4.10;;;3.00;99.90;;;;;;5047732;28;20036;-50
2021/04/06 02:07:05;;;;;;;17.42;3.30;;;3.00;99.90;;;;;;5045474;28;20100;-50
2021/04/06 02:09:32;;;;;;;20.42;3.50;;;3.00;99.90;;;;;;5048339;28;20033;-53
2021/04/06 02:11:57;;;;;;;20.35;4.18;;;2.90;99.90;;;;;;5053638;28;20029;-50
2021/04/06 02:14:24;;;;;;;29.50;6.80;;;2.90;99.90;;;;;;5053833;28;20028;-53
2021/04/06 02:16:52;;;;;;;25.35;4.40;;;2.90;99.90;;;;;;5051890;28;20390;-54
2021/04/06 02:19:22;;;;;;;26.55;4.38;;;2.90;99.90;;;;;;5047865;28;20770;-55
2021/04/06 02:21:50;;;;;;;26.58;4.25;;;2.80;99.90;;;;;;5043179;28;20032;-55
2021/04/06 02:24:33;;;;;;;22.77;4.45;;;2.90;99.90;;;;;;5042613;28;20029;-55
2021/04/06 02:27:07;;;;;;;32.60;5.50;;;2.80;99.90;;;;;;5053325;28;20060;-52
2021/04/06 02:29:38;;;;;;;26.17;3.85;;;2.80;99.90;;;;;;5050085;28;20024;-54
2021/04/06 02:32:09;;;;;;;22.50;3.83;;;2.80;99.90;;;;;;5055382;28;20099;-55
2021/04/06 02:34:38;;;;;;;25.80;3.90;;;2.80;99.90;;;;;;5046788;28;20021;-54
2021/04/06 02:37:04;;;;;;;24.50;4.82;;;2.80;99.90;;;;;;5049427;28;20036;-51
2021/04/06 02:39:36;;;;;;;21.80;3.85;;;2.70;99.90;;;;;;5053025;28;20025;-54
2021/04/06 02:42:22;;;;;;;18.85;3.80;;;2.70;99.90;;;;;;5049088;28;20082;-52
2021/04/06 02:44:48;;;;;;;16.48;3.55;;;2.80;99.90;;;;;;5054614;28;20040;-53
2021/04/06 02:47:14;;;;;;;22.88;4.32;;;2.80;99.90;;;;;;5056492;28;20036;-54
2021/04/06 02:49:39;;;;;;;29.90;4.35;;;2.80;99.90;;;;;;5050104;28;20561;-54
2021/04/06 02:52:05;;;;;;;19.23;4.88;;;2.80;99.90;;;;;;5049762;28;20031;-54
2021/04/06 02:54:32;;;;;;;27.35;6.10;;;2.80;99.90;;;;;;5049950;28;20025;-50
2021/04/06 02:56:58;;;;;;;18.90;4.45;;;2.70;99.90;;;;;;5050023;28;20029;-52
2021/04/06 02:59:23;;;;;;;27.13;4.55;;;2.70;99.90;;;;;;5065257;28;20031;-50
2021/04/06 03:01:51;;;;;;;16.45;5.00;;;2.70;99.90;;;;;;5051146;28;20111;-53
2021/04/06 03:04:17;;;;;;;23.58;3.90;;;2.70;99.90;;;;;;5051281;28;20075;-50
2021/04/06 03:06:43;;;;;;;26.30;4.97;;;2.70;99.90;;;;;;5044920;28;20111;-50
2021/04/06 03:09:13;;;;;;;17.63;5.22;;;2.60;99.90;;;;;;5050176;28;20113;-50
2021/04/06 03:11:46;;;;;;;21.00;6.55;;;2.60;99.90;;;;;;5049987;28;20083;-50
2021/04/06 03:14:13;;;;;;;19.40;4.50;;;2.60;99.90;;;;;;5052264;28;20063;-51
2021/04/06 03:16:40;;;;;;;23.48;5.05;;;2.60;99.90;;;;;;5058628;28;20028;-50
2021/04/06 03:19:06;;;;;;;31.40;6.50;;;2.50;99.90;;;;;;5051046;28;20108;-54
2021/04/06 03:21:34;;;;;;;24.65;6.03;;;2.50;99.90;;;;;;5050195;28;20045;-51
2021/04/06 03:24:00;;;;;;;16.98;4.97;;;2.50;99.90;;;;;;5047124;28;20029;-51
2021/04/06 03:26:28;;;;;;;15.38;3.55;;;2.50;99.90;;;;;;5050268;28;20057;-52
2021/04/06 03:29:00;;;;;;;27.77;6.38;;;2.50;99.90;;;;;;5051015;28;20029;-50
2021/04/06 03:31:32;;;;;;;13.05;3.88;;;2.50;99.90;;;;;;5052312;28;20013;-52
2021/04/06 03:34:00;;;;;;;23.00;4.88;;;2.50;99.90;;;;;;5029802;28;20093;-53
2021/04/06 03:36:28;;;;;;;28.23;5.30;;;2.50;99.90;;;;;;5051453;28;20040;-50
2021/04/06 03:38:56;;;;;;;17.10;5.13;;;2.50;99.90;;;;;;5054149;28;20021;-51
2021/04/06 03:41:24;;;;;;;21.73;7.40;;;2.50;99.90;;;;;;5053755;28;20025;-52
2021/04/06 03:43:51;;;;;;;16.73;5.30;;;2.50;99.90;;;;;;5056192;28;20056;-51
2021/04/06 03:46:25;;;;;;;25.85;4.28;;;2.50;99.90;;;;;;5060791;28;20063;-51
2021/04/06 03:48:52;;;;;;;25.85;4.97;;;2.40;99.90;;;;;;5047835;28;20402;-51
2021/04/06 03:51:29;;;;;;;23.77;4.95;;;2.30;99.90;;;;;;5053110;28;20471;-50
2021/04/06 03:53:56;;;;;;;17.95;6.32;;;2.20;99.90;;;;;;5049528;28;20029;-55
2021/04/06 03:56:32;;;;;;;22.25;5.50;;;2.20;99.90;;;;;;5053230;28;20075;-50
2021/04/06 03:59:02;;;;;;;26.08;6.15;;;2.20;99.90;;;;;;5056058;28;20037;-51
2021/04/06 04:01:29;;;;;;;25.30;6.32;;;2.10;99.90;;;;;;5058477;28;20119;-51
2021/04/06 04:03:56;;;;;;;25.50;7.13;;;2.10;99.90;;;;;;5053978;28;20036;-51
2021/04/06 04:06:26;;;;;;;18.63;6.20;;;2.10;99.90;;;;;;5053675;28;20029;-52
2021/04/06 04:08:53;;;;;;;20.98;6.13;;;2.10;99.90;;;;;;5036525;28;20029;-54
2021/04/06 04:11:20;;;;;;;25.48;6.22;;;2.10;99.90;;;;;;5052081;28;20059;-54
2021/04/06 04:13:45;;;;;;;22.70;6.50;;;2.10;99.90;;;;;;5061767;28;20016;-50
2021/04/06 04:16:11;;;;;;;23.38;6.78;;;2.10;99.90;;;;;;5059246;28;20040;-50
2021/04/06 04:18:37;;;;;;;27.95;6.88;;;2.10;99.90;;;;;;5053700;28;20488;-53
2021/04/06 04:21:04;;;;;;;22.67;8.70;;;2.20;99.90;;;;;;5051203;28;20043;-54
2021/04/06 04:23:29;;;;;;;26.67;6.53;;;2.20;99.90;;;;;;5051569;28;20021;-54
2021/04/06 04:25:55;;;;;;;27.98;6.80;;;2.20;99.90;;;;;;5048118;28;20094;-52
2021/04/06 04:28:21;;;;;;;18.73;5.95;;;2.20;99.90;;;;;;5064323;28;20060;-51
2021/04/06 04:30:47;;;;;;;24.30;6.28;;;2.20;99.90;;;;;;5054706;28;20110;-52
2021/04/06 04:33:13;;;;;;;30.10;7.55;;;2.20;99.90;;;;;;5053935;28;20384;-50
2021/04/06 04:35:39;;;;;;;22.60;6.55;;;2.20;99.90;;;;;;5045226;28;20040;-52
2021/04/06 04:38:06;;;;;;;31.02;6.68;;;2.20;99.90;;;;;;5044648;28;20028;-52
2021/04/06 04:40:32;;;;;;;17.63;5.70;;;2.20;99.90;;;;;;5046169;28;20108;-52
2021/04/06 04:42:58;;;;;;;20.45;5.05;;;2.20;99.90;;;;;;5055441;28;20032;-51
2021/04/06 04:45:24;;;;;;;16.67;5.22;;;2.20;99.90;;;;;;5053742;28;20664;-51
2021/04/06 04:47:50;;;;;;;17.75;4.35;;;2.10;99.90;;;;;;5056522;28;20020;-51
2021/04/06 04:50:17;;;;;;;23.02;4.97;;;2.20;99.90;;;;;;5044756;28;20029;-52
2021/04/06 04:52:44;;;;;;;21.83;4.07;;;2.10;99.90;;;;;;5044196;28;20029;-53
2021/04/06 04:55:12;;;;;;;23.25;4.35;;;2.10;99.90;;;;;;5024718;28;20024;-52
2021/04/06 04:57:38;;;;;;;20.83;4.97;;;2.10;99.90;;;;;;5060732;28;20502;-54
2021/04/06 05:00:05;;;;;;;24.17;4.22;;;2.10;99.90;;;;;;5052962;28;20032;-54
2021/04/06 05:02:31;;;;;;;14.88;4.85;;;2.10;99.90;;;;;;5045664;28;20025;-54
2021/04/06 05:04:57;;;;;;;19.25;4.13;;;2.00;99.90;;;;;;5048968;28;20054;-53
2021/04/06 05:07:23;;;;;;;25.33;3.58;;;2.10;99.90;;;;;;5046374;28;20507;-53
2021/04/06 05:09:48;;;;;;;25.55;3.85;;;2.10;99.90;;;;;;5044605;28;20501;-50
2021/04/06 05:12:14;;;;;;;23.45;3.45;;;2.00;99.90;;;;;;5051520;28;20499;-53
2021/04/06 05:14:40;;;;;;;18.80;3.38;;;2.00;99.90;;;;;;5052063;28;20052;-54
2021/04/06 05:17:06;;;;;;;15.98;3.75;;;2.00;99.90;;;;;;5052514;28;20630;-50
2021/04/06 05:19:31;;;;;;;27.63;5.20;;;2.00;99.90;;;;;;5050431;28;20036;-51
2021/04/06 05:21:57;;;;;;;16.92;3.38;;;2.10;99.90;;;;;;5044442;28;20033;-50
2021/04/06 05:24:22;;;;;;;21.65;2.45;;;2.10;99.90;;;;;;5047167;28;20029;-52
2021/04/06 05:26:48;;;;;;;18.73;2.90;;;2.10;99.90;;;;;;5049120;28;20032;-50
2021/04/06 05:29:14;;;;;;;19.55;3.00;;;2.10;99.90;;;;;;5052307;28;20029;-50
2021/04/06 05:31:39;;;;;;;14.93;3.72;;;2.10;99.90;;;;;;5050564;28;20029;-52
2021/04/06 05:34:05;;;;;;;22.38;3.47;;;2.20;99.90;;;;;;5049719;28;20040;-51
2021/04/06 05:36:30;;;;;;;22.08;2.97;;;2.20;99.90;;;;;;5043937;28;20029;-52
2021/04/06 05:38:56;;;;;;;16.27;3.22;;;2.20;99.90;;;;;;5044974;28;20040;-53
2021/04/06 05:41:22;;;;;;;14.75;3.03;;;2.20;99.90;;;;;;5050331;28;20039;-51
2021/04/06 05:43:55;;;;;;;17.40;4.65;;;2.20;99.90;;;;;;5051882;28;20021;-50
2021/04/06 05:46:22;;;;;;;15.07;3.30;;;2.20;99.90;;;;;;5049822;28;20035;-53
2021/04/06 05:48:48;;;;;;;18.42;3.88;;;2.30;99.90;;;;;;5049611;28;20029;-50
2021/04/06 05:51:16;;;;;;;12.32;3.28;;;2.30;99.90;;;;;;5044796;28;20119;-54
2021/04/06 05:53:43;;;;;;;28.10;4.20;;;2.30;99.90;;;;;;5042933;28;20159;-51
2021/04/06 05:56:08;;;;;;;14.88;3.83;;;2.30;99.90;;;;;;5045221;28;20491;-50
2021/04/06 05:58:34;;;;;;;13.50;3.47;;;2.40;99.90;;;;;;5052340;28;20043;-50
2021/04/06 06:01:00;;;;;;;11.02;2.92;;;2.40;99.90;;;;;;5052987;28;20040;-49
2021/04/06 06:03:26;;;;;;;25.67;4.65;;;2.40;99.90;;;;;;5057254;28;20379;-51
2021/04/06 06:05:51;;;;;;;19.58;3.35;;;2.50;99.90;;;;;;5044936;28;20025;-51
2021/04/06 06:08:18;;;;;;;19.33;4.25;;;2.50;99.90;;;;;;5045272;28;20187;-51
2021/04/06 06:10:44;;;;;;;15.45;3.70;;;2.50;99.90;;;;;;5043628;28;20017;-54
2021/04/06 06:13:23;;;;;;;15.45;5.75;;;2.60;99.90;;;;;;5050830;28;20031;-50
2021/04/06 06:16:08;;;;;;;22.40;4.30;;;2.60;99.90;;;;;;5051778;28;20364;-50
2021/04/06 06:19:04;;;;;;;14.95;5.63;;;2.60;99.90;;;;;;5051757;28;20028;-56
2021/04/06 06:21:40;;;;;;;20.35;3.58;;;2.60;99.90;;;;;;5042820;28;20024;-51
2021/04/06 06:24:07;;;;;;;24.20;3.75;;;2.60;99.90;;;;;;5041965;28;20025;-53
2021/04/06 06:26:33;;;;;;;13.38;3.17;;;2.60;99.90;;;;;;5046937;28;20031;-51
2021/04/06 06:29:18;;;;;;;26.48;3.28;;;2.60;99.90;;;;;;5052076;28;20024;-54
2021/04/06 06:31:45;;;;;;;;;;;2.60;99.90;;;;;;5049199;28;20013;-51
2021/04/06 06:34:32;;;;;;;7.63;2.50;;;2.60;99.90;;;;;;5043600;28;20350;-53
2021/04/06 06:37:06;;;;;;;7.95;2.33;;;2.70;99.90;;;;;;5046463;28;20090;-49
2021/04/06 06:39:32;;;;;;;;;;;2.60;99.90;;;;;;5046409;28;20021;-50
2021/04/06 06:42:00;;;;;;;4.68;1.83;;;2.60;99.90;;;;;;5048218;28;19924;-50
2021/04/06 06:44:27;;;;;;;11.52;1.77;;;2.60;99.90;;;;;;5051720;28;20025;-50
2021/04/06 06:47:08;;;;;;;12.98;2.25;;;2.60;99.90;;;;;;5057822;28;20036;-53
2021/04/06 06:49:38;;;;;;;8.63;1.98;;;2.70;99.90;;;;;;5050308;28;20039;-52
2021/04/06 06:52:08;;;;;;;12.90;2.47;;;2.70;99.90;;;;;;5051335;28;20025;-55
2021/04/06 06:54:42;;;;;;;7.45;2.50;;;2.80;99.90;;;;;;5050698;28;20025;-52
2021/04/06 06:57:10;;;;;;;15.10;2.95;;;2.80;99.90;;;;;;5050855;28;20282;-51
2021/04/06 06:59:43;;;;;;;11.02;2.58;;;2.90;99.90;;;;;;5054267;28;20495;-50
2021/04/06 07:02:25;;;;;;;13.73;3.47;;;2.90;99.90;;;;;;5057380;28;20041;-50
2021/04/06 07:05:21;;;;;;;15.85;3.72;;;2.90;99.90;;;;;;5051106;28;20028;-51
2021/04/06 07:07:52;;;;;;;20.23;4.32;;;2.90;99.90;;;;;;5053847;28;20037;-50
2021/04/06 07:10:46;;;;;;;26.50;4.70;;;3.00;99.90;;;;;;5048657;28;20048;-52
2021/04/06 07:13:19;;;;;;;13.20;4.50;;;3.10;99.90;;;;;;5058224;28;20040;-51
2021/04/06 07:15:48;;;;;;;17.27;5.40;;;3.00;99.90;;;;;;5049614;28;20025;-54
2021/04/06 07:18:17;;;;;;;24.08;5.38;;;3.00;99.90;;;;;;5054260;28;20022;-52
2021/04/06 07:21:05;;;;;;;18.25;4.57;;;2.90;99.90;;;;;;5054239;28;20398;-52
2021/04/06 07:23:45;;;;;;;13.13;5.03;;;3.00;99.90;;;;;;5052377;28;20122;-51
2021/04/06 07:26:15;;;;;;;22.42;5.72;;;3.00;99.90;;;;;;5054214;28;20112;-51
2021/04/06 07:28:41;;;;;;;16.88;5.82;;;3.20;99.90;;;;;;5055214;28;20533;-53
2021/04/06 07:31:12;;;;;;;17.20;4.80;;;3.20;99.90;;;;;;5054553;28;20036;-50
2021/04/06 07:33:41;;;;;;;23.02;6.65;;;3.40;99.90;;;;;;5054103;28;20159;-51
2021/04/06 07:36:13;;;;;;;11.75;5.63;;;3.40;99.90;;;;;;5054128;28;20036;-52
2021/04/06 07:38:48;;;;;;;15.07;4.32;;;3.40;99.90;;;;;;5055788;28;20036;-51
2021/04/06 07:41:25;;;;;;;14.38;3.63;;;3.50;99.90;;;;;;5058272;28;20025;-50
2021/04/06 07:43:53;;;;;;;16.02;4.82;;;3.70;99.90;;;;;;5060664;28;20036;-53
2021/04/06 07:46:34;;;;;;;19.10;3.22;;;3.60;99.90;;;;;;5054430;28;20438;-52
2021/04/06 07:49:06;;;;;;;17.02;3.10;;;3.60;99.90;;;;;;5050516;28;20041;-50
2021/04/06 07:51:45;;;;;;;13.88;3.08;;;3.50;99.90;;;;;;5051539;28;20025;-51
2021/04/06 07:54:32;;;;;;;16.58;3.53;;;3.50;99.90;;;;;;5053342;28;20013;-51
2021/04/06 07:57:03;;;;;;;7.65;3.03;;;3.70;99.90;;;;;;5054072;28;20024;-50
2021/04/06 07:59:28;;;;;;;13.32;3.40;;;3.70;99.90;;;;;;5050465;28;20355;-50
2021/04/06 08:01:54;;;;;;;15.70;3.80;;;3.70;99.90;;;;;;5061380;28;20032;-51
2021/04/06 08:04:42;;;;;;;15.48;2.65;;;3.70;99.90;;;;;;5054196;28;20024;-50
2021/04/06 08:07:32;;;;;;;20.02;2.83;;;3.80;99.90;;;;;;5054958;28;20020;-50
2021/04/06 08:10:10;;;;;;;21.52;3.13;;;3.90;99.90;;;;;;5057701;28;20607;-50
2021/04/06 08:12:37;;;;;;;18.95;3.50;;;3.90;99.90;;;;;;5046272;28;20017;-51
2021/04/06 08:15:04;;;;;;;11.90;2.50;;;3.90;99.90;;;;;;5053024;28;20029;-52
2021/04/06 08:17:29;;;;;;;15.35;2.33;;;3.90;99.90;;;;;;5052624;28;20436;-49
2021/04/06 08:20:15;;;;;;;14.52;2.75;;;4.00;99.90;;;;;;5052453;28;20025;-51
2021/04/06 08:22:57;;;;;;;21.25;5.13;;;4.10;99.90;;;;;;5050957;28;20040;-51
2021/04/06 08:25:23;;;;;;;11.10;3.17;;;4.10;99.90;;;;;;5052917;28;20032;-51
2021/04/06 08:27:53;;;;;;;12.00;3.10;;;4.20;99.90;;;;;;5059797;28;20037;-52
2021/04/06 08:30:18;;;;;;;22.73;2.97;;;4.30;99.90;;;;;;5056219;28;20490;-51
2021/04/06 08:32:59;;;;;;;12.30;3.55;;;4.30;99.90;;;;;;5051131;28;20052;-52
2021/04/06 08:35:47;;;;;;;16.05;3.00;;;4.30;99.90;;;;;;5051612;28;20021;-54
2021/04/06 08:38:33;;;;;;;12.48;4.63;;;4.30;99.90;;;;;;5059429;28;20037;-53
2021/04/06 08:40:59;;;;;;;21.98;3.92;;;4.30;99.90;;;;;;5054839;28;20082;-54
2021/04/06 08:43:32;;;;;;;12.82;2.70;;;4.20;99.90;;;;;;5051738;28;20033;-54
2021/04/06 08:46:00;;;;;;;18.98;3.30;;;4.30;99.90;;;;;;5047911;28;20036;-51
2021/04/06 08:49:02;;;;;;;10.52;2.63;;;4.30;99.90;;;;;;5030160;28;578830;-52
2021/04/06 08:51:29;;;;;;;14.77;2.90;;;4.30;99.90;;;;;;5061380;28;20032;-54
2021/04/06 08:54:01;;;;;;;13.35;3.28;;;4.20;99.90;;;;;;5053940;28;20091;-55
2021/04/06 08:56:34;;;;;;;18.67;2.83;;;4.30;99.90;;;;;;5048681;28;20020;-54
2021/04/06 08:59:16;;;;;;;9.75;2.60;;;4.30;99.90;;;;;;5060638;28;20124;-54
2021/04/06 09:01:58;;;;;;;16.30;3.28;;;4.30;99.90;;;;;;5051854;28;20035;-54
2021/04/06 09:04:26;;;;;;;10.32;2.58;;;4.40;99.90;;;;;;5053012;28;20505;-53
2021/04/06 09:06:52;;;;;;;10.00;3.13;;;4.50;99.90;;;;;;5049822;28;20395;-54
2021/04/06 09:09:26;;;;;;;11.25;2.25;;;4.50;99.90;;;;;;5053836;28;20035;-52
2021/04/06 09:11:53;;;;;;;11.32;2.72;;;4.60;99.90;;;;;;5049422;28;20029;-55
2021/04/06 09:14:19;;;;;;;14.00;3.20;;;4.60;99.90;;;;;;5054340;28;20028;-54
2021/04/06 09:16:45;;;;;;;12.15;2.35;;;4.70;99.90;;;;;;5053227;28;20421;-54
2021/04/06 09:19:15;;;;;;;8.88;2.03;;;4.70;99.90;;;;;;5056332;28;20104;-51
2021/04/06 09:21:44;;;;;;;7.88;2.42;;;4.90;99.90;;;;;;5050912;28;20025;-55
2021/04/06 09:24:11;;;;;;;8.75;2.05;;;4.80;99.90;;;;;;5056001;28;20535;-55
2021/04/06 09:26:38;;;;;;;9.73;1.98;;;4.90;99.90;;;;;;5053593;28;20043;-52
2021/04/06 09:29:05;;;;;;;6.55;1.98;;;4.80;99.90;;;;;;5058931;28;20029;-54
2021/04/06 09:31:34;;;;;;;8.60;2.13;;;4.70;99.90;;;;;;5051907;28;20541;-51
2021/04/06 09:34:05;;;;;;;12.38;2.42;;;4.70;99.90;;;;;;5051441;28;20031;-55
2021/04/06 09:36:31;;;;;;;8.70;2.25;;;4.90;99.90;;;;;;5048832;28;20028;-55
2021/04/06 09:38:57;;;;;;;10.13;3.10;;;5.10;99.90;;;;;;5057160;28;20394;-54
2021/04/06 09:41:35;;;;;;;11.18;3.00;;;5.20;99.90;;;;;;5052791;28;20029;-53
2021/04/06 09:44:02;;;;;;;11.85;2.72;;;5.00;99.90;;;;;;5056486;28;20025;-52
2021/04/06 09:46:45;;;;;;;11.75;3.72;;;4.90;99.90;;;;;;5051924;28;20569;-53
2021/04/06 09:49:12;;;;;;;8.98;2.70;;;4.80;99.90;;;;;;5051741;28;20037;-57
2021/04/06 09:51:44;;;;;;;11.60;2.50;;;4.70;99.90;;;;;;5052798;28;20028;-53
2021/04/06 09:54:11;;;;;;;8.52;2.67;;;4.70;99.90;;;;;;5059509;28;20035;-55
2021/04/06 09:56:38;;;;;;;13.50;2.60;;;4.80;99.90;;;;;;5050001;28;20029;-51
2021/04/06 09:59:06;;;;;;;9.75;2.63;;;5.10;99.90;;;;;;5061578;28;20101;-54
2021/04/06 10:01:32;;;;;;;5.35;3.00;;;5.40;99.90;;;;;;5055386;28;20081;-54
2021/04/06 10:04:00;;;;;;;9.20;2.40;;;5.80;99.90;;;;;;5060480;28;20121;-53
2021/04/06 10:06:39;;;;;;;6.82;2.00;;;6.20;99.90;;;;;;5054553;28;20557;-57
2021/04/06 10:09:32;;;;;;;7.30;2.35;;;5.90;99.90;;;;;;5053514;28;20075;-54
2021/04/06 10:11:58;;;;;;;11.63;2.42;;;5.90;99.90;;;;;;5048694;28;20499;-54
2021/04/06 10:14:24;;;;;;;10.85;2.53;;;5.90;99.90;;;;;;5046116;28;20033;-57
2021/04/06 10:16:57;;;;;;;13.80;3.03;;;5.70;99.90;;;;;;5046861;28;20086;-51
2021/04/06 10:19:26;;;;;;;11.10;2.97;;;5.80;99.90;;;;;;5052272;28;20025;-53
2021/04/06 10:22:00;;;;;;;13.10;2.85;;;5.80;99.90;;;;;;5053445;28;20029;-52
2021/04/06 10:24:28;;;;;;;4.28;1.85;;;5.70;99.90;;;;;;5048116;28;20099;-56
2021/04/06 10:27:04;;;;;;;9.82;2.10;;;6.00;99.90;;;;;;5049622;28;20040;-53
2021/04/06 10:29:34;;;;;;;8.68;1.95;;;6.30;99.90;;;;;;5048110;28;20033;-51
2021/04/06 10:32:01;;;;;;;6.85;1.63;;;6.60;99.90;;;;;;5060235;28;20025;-54
2021/04/06 10:34:28;;;;;;;4.93;1.63;;;6.40;99.90;;;;;;5049772;28;20025;-52
2021/04/06 10:36:59;;;;;;;3.90;1.83;;;6.40;99.90;;;;;;5054151;28;20147;-51
2021/04/06 10:39:39;;;;;;;6.75;1.85;;;6.30;99.90;;;;;;5047247;28;20029;-51
2021/04/06 10:42:07;;;;;;;7.45;2.15;;;5.80;99.90;;;;;;5047420;28;20555;-53
2021/04/06 10:44:34;;;;;;;9.32;2.50;;;5.60;99.90;;;;;;5047599;28;20070;-51
2021/04/06 10:47:00;;;;;;;8.05;1.50;;;5.30;99.90;;;;;;5047082;28;20487;-54
2021/04/06 10:49:25;;;;;;;2.97;1.23;;;4.90;99.90;;;;;;5048313;28;20103;-52
2021/04/06 10:51:54;;;;;;;2.47;1.33;;;5.10;99.90;;;;;;5051775;28;20021;-55
2021/04/06 10:54:20;;;;;;;4.82;0.85;;;4.90;99.90;;;;;;5049405;28;20013;-51
2021/04/06 10:56:52;;;;;;;5.25;0.98;;;4.20;99.90;;;;;;5049673;28;20068;-55
2021/04/06 10:59:33;;;;;;;3.58;1.30;;;3.60;99.90;;;;;;5049113;28;20021;-54
2021/04/06 11:02:01;;;;;;;5.85;1.48;;;3.00;99.90;;;;;;5046718;28;20127;-52
2021/04/06 11:04:37;;;;;;;4.25;1.95;;;2.80;99.90;;;;;;5046759;28;20471;-52
2021/04/06 11:07:05;;;;;;;6.10;1.58;;;3.10;99.90;;;;;;5054123;28;20029;-52
2021/04/06 11:09:38;;;;;;;11.35;1.95;;;3.70;99.90;;;;;;5049201;28;20372;-55
2021/04/06 11:12:07;;;;;;;6.60;1.80;;;4.30;99.90;;;;;;5047557;28;20021;-51
2021/04/06 11:14:33;;;;;;;31.58;4.88;;;4.90;99.90;;;;;;5047082;28;20052;-55
2021/04/06 11:17:09;;;;;;;7.68;2.28;;;5.10;99.90;;;;;;5049564;28;20048;-54
2021/04/06 11:19:41;;;;;;;10.63;2.97;;;5.60;99.90;;;;;;5053123;28;20243;-55
2021/04/06 11:22:11;;;;;;;5.70;2.72;;;6.30;99.90;;;;;;5050369;28;20033;-52
2021/04/06 11:24:38;;;;;;;10.23;3.60;;;6.50;99.90;;;;;;5049481;28;20495;-53
2021/04/06 11:27:05;;;;;;;13.57;2.80;;;6.20;99.90;;;;;;5048626;28;20602;-52
2021/04/06 11:29:34;;;;;;;11.65;3.65;;;6.10;99.90;;;;;;5049430;28;20426;-52
2021/04/06 11:32:04;;;;;;;7.72;2.47;;;6.20;99.90;;;;;;5045206;28;20025;-54
2021/04/06 11:34:30;;;;;;;8.52;2.42;;;6.00;99.90;;;;;;5049462;28;20033;-53
2021/04/06 11:36:56;;;;;;;9.02;2.75;;;5.60;99.90;;;;;;5051087;28;20025;-55
2021/04/06 11:39:26;;;;;;;7.15;2.72;;;5.50;99.90;;;;;;5051596;28;20028;-54
2021/04/06 11:41:51;;;;;;;10.18;2.85;;;5.50;99.90;;;;;;5048447;28;20383;-55
2021/04/06 11:44:17;;;;;;;12.68;3.35;;;5.40;99.90;;;;;;5030678;28;20059;-57
2021/04/06 11:46:47;;;;;;;13.50;2.85;;;5.30;99.90;;;;;;5049213;28;20506;-52
2021/04/06 11:49:14;;;;;;;10.10;2.50;;;5.20;99.90;;;;;;5048071;28;20052;-55
2021/04/06 11:51:40;;;;;;;10.90;3.10;;;5.10;99.90;;;;;;5043858;28;20025;-56
2021/04/06 11:54:08;;;;;;;13.10;3.30;;;5.10;99.90;;;;;;5041918;28;20497;-56
2021/04/06 11:56:33;;;;;;;18.58;3.20;;;5.20;99.90;;;;;;5046455;28;20037;-52
2021/04/06 11:58:59;;;;;;;13.60;2.72;;;5.20;99.90;;;;;;5051598;28;20025;-55
2021/04/06 12:01:25;;;;;;;6.60;2.70;;;5.20;99.90;;;;;;5057454;28;20017;-54
2021/04/06 12:03:51;;;;;;;7.13;2.25;;;5.00;99.90;;;;;;5048555;28;20029;-52
2021/04/06 12:06:16;;;;;;;5.72;2.53;;;3.90;99.90;;;;;;5056822;28;20497;-55
2021/04/06 12:08:42;;;;;;;4.53;2.30;;;3.30;99.90;;;;;;5046663;28;20021;-56
2021/04/06 12:11:09;;;;;;;5.07;1.40;;;3.10;99.90;;;;;;5046723;28;20041;-56
2021/04/06 12:13:35;;;;;;;7.47;1.80;;;3.00;99.90;;;;;;5045826;28;20487;-56
2021/04/06 12:16:00;;;;;;;7.28;1.80;;;2.90;99.90;;;;;;5047260;28;20048;-56
2021/04/06 12:18:26;;;;;;;7.30;1.42;;;3.00;99.90;;;;;;5040052;28;20028;-51
2021/04/06 12:20:53;;;;;;;5.65;1.52;;;3.20;99.90;;;;;;5042741;28;20029;-50
2021/04/06 12:23:18;;;;;;;4.47;2.15;;;3.30;99.90;;;;;;5042678;28;20083;-54
2021/04/06 12:25:44;;;;;;;6.43;2.10;;;3.40;99.90;;;;;;5026792;28;20025;-52
2021/04/06 12:28:09;;;;;;;7.25;2.22;;;3.40;99.90;;;;;;5048384;28;20025;-54
2021/04/06 12:30:35;;;;;;;6.97;2.63;;;3.50;99.90;;;;;;5049476;28;20037;-55
2021/04/06 12:33:01;;;;;;;7.50;2.80;;;3.90;99.90;;;;;;5052769;28;20071;-51
2021/04/06 12:35:27;;;;;;;9.23;2.75;;;4.40;99.90;;;;;;5058874;28;20017;-55
2021/04/06 12:37:53;;;;;;;7.47;2.42;;;4.90;99.90;;;;;;5051051;28;20036;-55
2021/04/06 12:40:19;;;;;;;4.10;2.10;;;5.10;99.90;;;;;;5055577;28;20024;-55
2021/04/06 12:42:44;;;;;;;10.55;2.28;;;5.50;99.90;;;;;;5052482;28;20394;-53
2021/04/06 12:45:14;;;;;;;9.77;1.85;;;5.80;99.90;;;;;;5054169;28;20032;-54
2021/04/06 12:47:40;;;;;;;6.80;2.20;;;6.10;99.90;;;;;;5047798;28;20044;-51
2021/04/06 12:50:07;;;;;;;6.15;1.63;;;6.20;99.90;;;;;;5056401;28;20128;-54
2021/04/06 12:52:33;;;;;;;6.53;0.90;;;6.30;99.90;;;;;;5050873;28;20106;-52
2021/04/06 12:54:59;;;;;;;5.35;1.17;;;6.20;99.90;;;;;;5055746;28;20118;-52
2021/04/06 12:57:24;;;;;;;3.15;1.05;;;6.00;99.90;;;;;;5051558;28;20021;-55
2021/04/06 12:59:57;;;;;;;3.03;2.00;;;5.80;99.90;;;;;;5057653;28;20028;-53
2021/04/06 13:02:24;;;;;;;10.32;4.03;;;5.60;99.90;;;;;;5049082;28;20032;-55